• Join FlightAware (Why Join?)
  • Login
  • US Flag 
08:17AM EDT


 

Airport Tracker/Info


-or-


 

Live Flight TrackerFlight Track Log ✈ SWA767 ✈ 20-Apr-2013 ✈ KDAL - KAUS

Flight Track Log - Related Links

Times and Time Zones

All times are in EDT time to prevent confusion due to time zone crossing. See the SWA767 flight status page for this flight to view local times or setup timezone preferences in your user account.

Time Position Orientation Groundspeed Altitude Reporting Facility
EDT Latitude Longitude Course Direction KTS MPH feet Rate Location/Type
08:51AM 32.8333 -96.8333 177° South 147 169 1,700  Level Dallas / Fort Worth TRACON
08:54AM 32.6942 -96.8233 177° South 223 257 8,600 2,280 Climbing Fort Worth Center
08:55AM 32.6128 -96.8486 195° South 289 333 9,700 2,040 Climbing Fort Worth Center
08:56AM 32.5275 -96.8739 194° South 308 354 12,700 3,120 Climbing Fort Worth Center
08:57AM 32.4336 -96.8964 191° South 343 395 16,000 2,940 Climbing Fort Worth Center
08:58AM 32.3375 -96.9167 190° South 352 405 18,600 2,400 Climbing Fort Worth Center
08:59AM 32.2439 -96.9369 190° South 364 419 20,900 1,680 Climbing Fort Worth Center
09:00AM 32.1269 -96.9547 187° South 380 437 22,000 540 Climbing Fort Worth Center
09:01AM 32.0183 -96.9797 191° South 396 456 22,000  Level Fort Worth Center
09:02AM 31.9142 -97.0094 194° South 389 448 22,000  Level Fort Worth Center
09:02AM 31.8331 -97.0328 194° South 389 448 22,000  Level Houston Center
09:03AM 31.7286 -97.0628 194° South 385 443 22,000  Level Houston Center
09:04AM 31.6236 -97.0925 194° South 383 441 22,000  Level Houston Center
09:05AM 31.5189 -97.1208 193° South 382 440 22,000  Level Houston Center
09:06AM 31.4147 -97.1511 194° South 382 440 22,000  Level Houston Center
09:08AM 31.3092 -97.1803 193° South 384 442 22,000 -120 Level Houston Center
09:09AM 31.2042 -97.2108 194° South 385 443 21,800 -1,020 Descending Houston Center
09:10AM 31.1067 -97.2492 199° South 369 425 20,000 -1,980 Descending Houston Center
09:11AM 30.9997 -97.2906 198° South 349 402 17,800 -2,340 Descending Houston Center
09:12AM 30.9089 -97.3269 199° South 355 409 15,300 -2,340 Descending Houston Center
09:13AM 30.8197 -97.3597 198° South 341 392 13,100 -2,220 Descending Houston Center
09:14AM 30.7350 -97.3919 198° South 323 372 10,900 -1,740 Descending Houston Center
09:15AM 30.6628 -97.4439 212° Southwest 307 353 9,600 -1,500 Descending Houston Center
09:16AM 30.6025 -97.4975 217° Southwest 276 318 7,900 -1,740 Descending Houston Center
09:17AM 30.5506 -97.5600 226° Southwest 266 306 6,100 -1,680 Descending Houston Center
09:18AM 30.5000 -97.6222 227° Southwest 264 304 4,600 -1,320 Descending Houston Center
09:19AM 30.4450 -97.6706 217° Southwest 254 292 3,500 -840 Descending Houston Center
09:20AM 30.3911 -97.6864 194° South 209 241 3,000 -300 Descending Houston Center
09:21AM 30.3414 -97.6836 177° South 182 209 3,000 -540 Level Houston Center
09:22AM 30.2856 -97.6803 177° South 174 200 2,000 -1,020 Descending Houston Center